Hauptseite
METAR-TAF:

METAR-TAF

Flughäfen :

Militärflugplatz Luxeuil-Saint Sauveur

Luxeuil-les-Bains, Frankreich

Breite: 47-47N, Länge: 006-21E, Höhe: 278 m

Beobachtung

Neuester Wetterbericht von vor 34 Minuten, um 01:30 UTC
Wind 2 kt aus unterschiedlichen Richtungen
Temperatur 16°C
Luftfeuchtigkeit 82%
Luftdruck 1015 hPa
Sichtweite 10 km oder mehr

METAR: LFSX 170130Z AUTO VRB02KT 9999 NCD 16/13 Q1015

Zeit: 04:04 (02:04 UTC)

Prognose

Neuester Wetterbericht von vor 12 Stunden und 4 Minuten, um 14:00 UTC
Gültige Prognose vom 16 um 15 UTC bis 17 um 15 UTC
Wind 3 kt aus unterschiedlichen Richtungen
Sichtweite 10 km oder mehr
keine Wolken unter 1500 m und keine Kumulonimbus oder Gewitterwolken
Zeitweise
vom 16 um 18 UTC bis 16 um 23 UTC
Aufgelockert bewölkt in der Höhe von 6000 ft, Towering cumulus.
Regenschauer

TAF: LFSX 161400Z 1615/1715 VRB03KT CAVOK TEMPO 1618/1623 SHRA SCT060TCU

Wetterbeobachtungen und Prognosen von mehr als 4000 Flughäfen (METAR und TAF Bericht).

Die verfügbaren Stationen werden durch gelbe und rote Markierungen auf der Karte dargestellt.

Führen Sie die Maus auf sie, um den Namen der Station zu sehen.

Darauf klicken, um die Beobachtung von Wetterbeobachtungen und Prognosen zu sehen.

Um die Karte zu ändern : klicken Sie auf den grünen Tasten mit einem schwarzen Kreuz Zum Vergrößern, auf den grünen Button mit einem Gedankenstrich zu verkleinern, oder auf die grünen Pfeile für benachbarte Karten.


METAR-TAF: